AXCGGARGarmin  id=247  GPS 72 Software Version 2.50|2140330771
HFDTE121110
HFPLTPilot:UNREGISTERED
HFTZOTimezone:1
HFSITSite:
HPGTYGliderType:
HPGIDGliderID:
HFDTM100DATUM:WGS-1984
HFCIDCOMPETITIONID:
HFCCLCOMPETITIONCLASS:
LXCG     ICON:C:\Program Files\CompeGPS\symbols\IconsPlay\cronos.ico
LXCG     COLOR:000119000
I00
B1407393747837N00054011WA0000000012
B1407453747846N00053987WA0000000012
B1407513747843N00053955WA0000000012
B1407573747838N00053927WA0000000012
B1408033747831N00053902WA0000000012
B1408093747832N00053896WA0000000019
B1408153747836N00053922WA0000000022
B1408213747851N00053951WA0000000022
B1408273747920N00053982WA0000000180
B1408333747923N00053951WA0000000179
B1408393747933N00053919WA0000000176
B1408453747934N00053891WA0000000184
B1408513747925N00053882WA0000000181
B1408573747937N00053907WA0000000178
B1409033747943N00053934WA0000000178
B1409093747946N00053961WA0000000182
B1409153747937N00053966WA0000000180
B1409213747942N00053935WA0000000181
B1409273747943N00053905WA0000000184
B1409333747935N00053888WA0000000185
B1409393747928N00053899WA0000000182
B1409453747937N00053928WA0000000181
B1409513747944N00053961WA0000000184
B1409573747946N00053989WA0000000188
B1410033747943N00054006WA0000000193
B1410093747938N00054001WA0000000195
B1410153747945N00053966WA0000000195
B1410213747949N00053933WA0000000197
B1410273747945N00053901WA0000000194
B1410333747935N00053892WA0000000193
B1410393747929N00053911WA0000000193
B1410453747919N00053930WA0000000190
B1410513747912N00053953WA0000000188
B1410573747894N00053973WA0000000189
B1411033747883N00053994WA0000000187
B1411093747884N00054021WA0000000181
B1411153747873N00054039WA0000000179
B1411213747861N00054062WA0000000179
B1411273747860N00054093WA0000000179
B1411333747859N00054120WA0000000183
B1411393747864N00054149WA0000000185
B1411453747880N00054179WA0000000184
B1411513747895N00054205WA0000000188
B1411573747911N00054236WA0000000194
B1412033747904N00054244WA0000000196
B1412093747899N00054220WA0000000197
B1412153747895N00054197WA0000000200
B1412213747890N00054173WA0000000203
B1412273747886N00054149WA0000000207
B1412333747877N00054130WA0000000206
B1412393747883N00054156WA0000000204
B1412453747900N00054186WA0000000210
B1412513747918N00054217WA0000000215
B1412573747931N00054245WA0000000219
B1413033747922N00054249WA0000000216
B1413093747914N00054225WA0000000215
B1413153747907N00054198WA0000000215
B1413213747900N00054169WA0000000218
B1413273747894N00054148WA0000000224
B1413333747884N00054149WA0000000223
B1413393747897N00054178WA0000000223
B1413453747920N00054202WA0000000223
B1413513747926N00054228WA0000000220
B1413573747916N00054214WA0000000221
B1414033747913N00054187WA0000000224
B1414093747911N00054162WA0000000226
B1414153747903N00054158WA0000000225
B1414213747916N00054186WA0000000228
B1414273747914N00054208WA0000000233
B1414333747908N00054184WA0000000233
B1414393747905N00054160WA0000000235
B1414453747897N00054172WA0000000236
B1414513747897N00054200WA0000000239
B1414573747894N00054230WA0000000236
B1415033747894N00054262WA0000000234
B1415093747897N00054293WA0000000232
B1415153747898N00054326WA0000000231
B1415213747900N00054357WA0000000229
B1415273747898N00054389WA0000000227
B1415333747906N00054421WA0000000227
B1415393747933N00054448WA0000000224
B1415453747967N00054463WA0000000219
B1415513747994N00054481WA0000000226
B1415573748013N00054502WA0000000225
B1416033748026N00054528WA0000000224
B1416093748038N00054556WA0000000223
B1416153748043N00054585WA0000000225
B1416213748042N00054612WA0000000229
B1416273748042N00054639WA0000000233
B1416333748058N00054668WA0000000234
B1416393748068N00054700WA0000000238
B1416453748068N00054731WA0000000239
B1416513748066N00054723WA0000000236
B1416573748068N00054701WA0000000235
B1417033748066N00054680WA0000000238
B1417093748060N00054657WA0000000241
B1417153748052N00054641WA0000000244
B1417213748056N00054611WA0000000245
B1417273748061N00054578WA0000000246
B1417333748058N00054549WA0000000250
B1417393748053N00054525WA0000000259
B1417453748053N00054498WA0000000265
B1417513748044N00054500WA0000000266
B1417573748055N00054526WA0000000265
B1418033748069N00054555WA0000000265
B1418093748077N00054584WA0000000276
B1418153748086N00054617WA0000000282
B1418213748097N00054646WA0000000286
B1418273748095N00054670WA0000000295
B1418333748088N00054658WA0000000296
B1418393748086N00054631WA0000000299
B1418453748082N00054609WA0000000302
B1418513748077N00054582WA0000000306
B1418573748079N00054551WA0000000307
B1419033748078N00054524WA0000000313
B1419093748067N00054525WA0000000314
B1419153748056N00054539WA0000000316
B1419213748045N00054555WA0000000316
B1419273748035N00054576WA0000000316
B1419333748042N00054609WA0000000314
B1419393748060N00054637WA0000000317
B1419453748069N00054671WA0000000316
B1419513748059N00054679WA0000000311
B1419573748062N00054650WA0000000309
B1420033748075N00054621WA0000000306
B1420093748074N00054595WA0000000308
B1420153748071N00054564WA0000000308
B1420213748070N00054536WA0000000321
B1420273748064N00054514WA0000000327
B1420333748057N00054523WA0000000331
B1420393748052N00054546WA0000000336
B1420453748040N00054562WA0000000335
B1420513748027N00054582WA0000000328
B1420573748010N00054597WA0000000324
B1421033748001N00054621WA0000000321
B1421093748024N00054646WA0000000317
B1421153748049N00054668WA0000000314
B1421213748050N00054698WA0000000312
B1421273748044N00054680WA0000000307
B1421333748062N00054649WA0000000303
B1421393748075N00054614WA0000000302
B1421453748078N00054584WA0000000305
B1421513748075N00054556WA0000000304
B1421573748074N00054528WA0000000313
B1422033748064N00054515WA0000000314
B1422093748065N00054541WA0000000312
B1422153748066N00054570WA0000000310
B1422213748063N00054602WA0000000313
B1422273748060N00054634WA0000000312
B1422333748056N00054664WA0000000314
B1422393748049N00054692WA0000000310
B1422453748038N00054715WA0000000306
B1422513748023N00054711WA0000000301
B1422573748033N00054679WA0000000297
B1423033748052N00054649WA0000000295
B1423093748070N00054616WA0000000291
B1423153748077N00054583WA0000000297
B1423213748077N00054554WA0000000301
B1423273748077N00054530WA0000000304
B1423333748071N00054509WA0000000310
B1423393748062N00054523WA0000000307
B1423453748065N00054553WA0000000310
B1423513748070N00054582WA0000000315
B1423573748069N00054611WA0000000316
B1424033748075N00054642WA0000000314
B1424093748081N00054672WA0000000313
B1424153748074N00054697WA0000000308
B1424213748061N00054717WA0000000305
B1424273748051N00054740WA0000000300
B1424333748041N00054764WA0000000295
B1424393748033N00054787WA0000000293
B1424453748026N00054803WA0000000293
B1424513748016N00054815WA0000000291
B1424573748016N00054841WA0000000283
B1425033748021N00054871WA0000000278
B1425093748021N00054899WA0000000276
B1425153748028N00054931WA0000000274
B1425213748030N00054958WA0000000274
B1425273748024N00054973WA0000000269
B1425333748020N00054950WA0000000265
B1425393748017N00054921WA0000000262
B1425453748015N00054892WA0000000260
B1425513748012N00054859WA0000000255
B1425573748010N00054826WA0000000253
B1426033748017N00054793WA0000000251
B1426093748029N00054762WA0000000250
B1426153748044N00054734WA0000000252
B1426213748057N00054703WA0000000252
B1426273748065N00054675WA0000000253
B1426333748059N00054653WA0000000255
B1426393748053N00054628WA0000000258
B1426453748058N00054600WA0000000263
B1426513748059N00054573WA0000000264
B1426573748056N00054545WA0000000265
B1427033748056N00054512WA0000000270
B1427093748044N00054496WA0000000271
B1427153748038N00054520WA0000000271
B1427213748047N00054550WA0000000276
B1427273748064N00054577WA0000000283
B1427333748075N00054608WA0000000289
B1427393748088N00054637WA0000000293
B1427453748093N00054661WA0000000295
B1427513748084N00054663WA0000000298
B1427573748080N00054639WA0000000307
B1428033748079N00054613WA0000000308
B1428093748078N00054585WA0000000311
B1428153748073N00054562WA0000000314
B1428213748077N00054532WA0000000320
B1428273748075N00054512WA0000000325
B1428333748064N00054515WA0000000328
B1428393748053N00054512WA0000000330
B1428453748041N00054505WA0000000332
B1428513748029N00054501WA0000000333
B1428573748016N00054496WA0000000333
B1429033748013N00054513WA0000000333
B1429093748032N00054538WA0000000333
B1429153748048N00054565WA0000000334
B1429213748050N00054590WA0000000336
B1429273748041N00054596WA0000000338
B1429333748029N00054578WA0000000336
B1429393748015N00054558WA0000000334
B1429453748000N00054543WA0000000333
B1429513747985N00054530WA0000000330
B1429573747972N00054525WA0000000326
B1430033747969N00054544WA0000000320
B1430093747988N00054568WA0000000317
B1430153748012N00054593WA0000000314
B1430213748037N00054618WA0000000311
B1430273748064N00054645WA0000000308
B1430333748081N00054675WA0000000309
B1430393748073N00054687WA0000000308
B1430453748067N00054666WA0000000304
B1430513748061N00054637WA0000000304
B1430573748061N00054608WA0000000305
B1431033748061N00054576WA0000000305
B1431093748063N00054544WA0000000308
B1431153748065N00054513WA0000000312
B1431213748055N00054500WA0000000313
B1431273748044N00054508WA0000000314
B1431333748034N00054521WA0000000315
B1431393748039N00054546WA0000000312
B1431453748054N00054576WA0000000311
B1431513748066N00054608WA0000000313
B1431573748080N00054642WA0000000312
B1432033748082N00054671WA0000000313
B1432093748072N00054673WA0000000310
B1432153748069N00054650WA0000000310
B1432213748075N00054619WA0000000311
B1432273748077N00054591WA0000000312
B1432333748076N00054563WA0000000314
B1432393748078N00054531WA0000000313
B1432453748076N00054506WA0000000314
B1432513748062N00054497WA0000000315
B1432573748047N00054494WA0000000313
B1433033748032N00054499WA0000000312
B1433093748020N00054514WA0000000313
B1433153748008N00054526WA0000000308
B1433213747991N00054523WA0000000303
B1433273747977N00054507WA0000000300
B1433333747967N00054512WA0000000292
B1433393747994N00054530WA0000000288
B1433453748026N00054545WA0000000283
B1433513748051N00054567WA0000000283
B1433573748069N00054597WA0000000283
B1434033748085N00054629WA0000000287
B1434093748097N00054664WA0000000292
B1434153748094N00054685WA0000000294
B1434213748090N00054668WA0000000295
B1434273748083N00054646WA0000000296
B1434333748081N00054626WA0000000298
B1434393748076N00054644WA0000000298
B1434453748084N00054675WA0000000301
B1434513748076N00054691WA0000000304
B1434573748078N00054669WA0000000302
B1435033748082N00054642WA0000000303
B1435093748078N00054622WA0000000306
B1435153748075N00054598WA0000000309
B1435213748074N00054571WA0000000311
B1435273748076N00054540WA0000000312
B1435333748076N00054511WA0000000314
B1435393748068N00054505WA0000000314
B1435453748065N00054530WA0000000318
B1435513748072N00054561WA0000000316
B1435573748079N00054596WA0000000318
B1436033748086N00054622WA0000000321
B1436093748092N00054651WA0000000317
B1436153748086N00054666WA0000000314
B1436213748080N00054647WA0000000312
B1436273748079N00054621WA0000000312
B1436333748075N00054594WA0000000312
B1436393748072N00054564WA0000000314
B1436453748074N00054532WA0000000313
B1436513748070N00054509WA0000000314
B1436573748064N00054523WA0000000311
B1437033748066N00054549WA0000000311
B1437093748069N00054579WA0000000308
B1437153748073N00054611WA0000000307
B1437213748077N00054645WA0000000307
B1437273748082N00054680WA0000000306
B1437333748073N00054694WA0000000302
B1437393748069N00054674WA0000000299
B1437453748070N00054648WA0000000296
B1437513748068N00054625WA0000000302
B1437573748069N00054597WA0000000312
B1438033748066N00054576WA0000000317
B1438093748060N00054557WA0000000319
B1438153748056N00054533WA0000000320
B1438213748049N00054523WA0000000317
B1438273748056N00054551WA0000000316
B1438333748065N00054583WA0000000318
B1438393748073N00054612WA0000000320
B1438453748081N00054645WA0000000322
B1438513748076N00054665WA0000000321
B1438573748063N00054663WA0000000322
B1439033748057N00054647WA0000000324
B1439093748056N00054624WA0000000324
B1439153748061N00054597WA0000000324
B1439213748052N00054587WA0000000329
B1439273748055N00054613WA0000000335
B1439333748067N00054644WA0000000334
B1439393748062N00054660WA0000000331
B1439453748062N00054635WA0000000327
B1439513748069N00054603WA0000000328
B1439573748064N00054579WA0000000331
B1440033748061N00054555WA0000000333
B1440093748059N00054536WA0000000332
B1440153748053N00054544WA0000000329
B1440213748064N00054570WA0000000328
B1440273748076N00054597WA0000000328
B1440333748083N00054623WA0000000326
B1440393748080N00054642WA0000000325
B1440453748070N00054652WA0000000321
B1440513748060N00054673WA0000000320
B1440573748058N00054701WA0000000317
B1441033748050N00054730WA0000000315
B1441093748042N00054758WA0000000309
B1441153748034N00054782WA0000000304
B1441213748030N00054808WA0000000302
B1441273748025N00054833WA0000000301
B1441333748024N00054855WA0000000298
B1441393748024N00054878WA0000000298
B1441453748026N00054904WA0000000297
B1441513748027N00054929WA0000000295
B1441573748025N00054955WA0000000296
B1442033748017N00054965WA0000000294
B1442093748012N00054964WA0000000295
B1442153748005N00054961WA0000000297
B1442213747999N00054957WA0000000296
B1442273747994N00054941WA0000000294
B1442333747990N00054922WA0000000289
B1442393747989N00054895WA0000000287
B1442453747992N00054869WA0000000283
B1442513747996N00054838WA0000000278
B1442573748005N00054808WA0000000276
B1443033748018N00054776WA0000000274
B1443093748031N00054743WA0000000270
B1443153748041N00054711WA0000000267
B1443213748049N00054679WA0000000266
B1443273748058N00054648WA0000000269
B1443333748064N00054619WA0000000273
B1443393748072N00054589WA0000000284
B1443453748073N00054560WA0000000292
B1443513748075N00054533WA0000000298
B1443573748074N00054510WA0000000303
B1444033748063N00054503WA0000000306
B1444093748048N00054504WA0000000309
B1444153748034N00054512WA0000000309
B1444213748029N00054536WA0000000308
B1444273748041N00054569WA0000000304
B1444333748054N00054604WA0000000306
B1444393748067N00054638WA0000000306
B1444453748071N00054669WA0000000307
B1444513748061N00054684WA0000000303
B1444573748060N00054660WA0000000301
B1445033748064N00054629WA0000000302
B1445093748064N00054599WA0000000305
B1445153748065N00054568WA0000000307
B1445213748073N00054535WA0000000312
B1445273748072N00054508WA0000000314
B1445333748064N00054499WA0000000317
B1445393748063N00054517WA0000000318
B1445453748055N00054526WA0000000319
B1445513748045N00054508WA0000000319
B1445573748032N00054495WA0000000317
B1446033748021N00054480WA0000000315
B1446093748004N00054465WA0000000313
B1446153747987N00054457WA0000000309
B1446213747969N00054453WA0000000306
B1446273747953N00054456WA0000000304
B1446333747937N00054460WA0000000301
B1446393747925N00054466WA0000000295
B1446453747934N00054495WA0000000290
B1446513747942N00054527WA0000000285
B1446573747950N00054560WA0000000279
B1447033747966N00054593WA0000000275
B1447093747998N00054588WA0000000271
B1447153748010N00054556WA0000000271
B1447213748029N00054526WA0000000273
B1447273748027N00054503WA0000000275
B1447333748016N00054503WA0000000275
B1447393748029N00054531WA0000000271
B1447453748048N00054562WA0000000273
B1447513748061N00054596WA0000000278
B1447573748076N00054630WA0000000281
B1448033748089N00054668WA0000000287
B1448093748084N00054685WA0000000290
B1448153748078N00054673WA0000000290
B1448213748076N00054655WA0000000291
B1448273748075N00054633WA0000000294
B1448333748074N00054611WA0000000296
B1448393748078N00054585WA0000000299
B1448453748077N00054559WA0000000302
B1448513748075N00054531WA0000000305
B1448573748077N00054506WA0000000311
B1449033748068N00054506WA0000000315
B1449093748057N00054507WA0000000318
B1449153748046N00054511WA0000000322
B1449213748040N00054526WA0000000318
B1449273748045N00054553WA0000000318
B1449333748061N00054582WA0000000321
B1449393748064N00054612WA0000000320
B1449453748064N00054639WA0000000319
B1449513748053N00054654WA0000000316
B1449573748041N00054650WA0000000313
B1450033748055N00054620WA0000000310
B1450093748069N00054589WA0000000310
B1450153748073N00054558WA0000000311
B1450213748077N00054527WA0000000313
B1450273748072N00054510WA0000000317
B1450333748064N00054516WA0000000318
B1450393748052N00054512WA0000000318
B1450453748042N00054521WA0000000314
B1450513748050N00054550WA0000000313
B1450573748066N00054580WA0000000314
B1451033748075N00054611WA0000000316
B1451093748083N00054642WA0000000318
B1451153748091N00054670WA0000000319
B1451213748085N00054678WA0000000314
B1451273748085N00054655WA0000000312
B1451333748081N00054631WA0000000313
B1451393748077N00054611WA0000000312
B1451453748068N00054591WA0000000312
B1451513748060N00054571WA0000000312
B1451573748063N00054542WA0000000312
B1452033748065N00054512WA0000000313
B1452093748059N00054491WA0000000315
B1452153748061N00054510WA0000000315
B1452213748070N00054535WA0000000318
B1452273748066N00054547WA0000000318
B1452333748061N00054528WA0000000319
B1452393748051N00054519WA0000000315
B1452453748056N00054545WA0000000313
B1452513748066N00054577WA0000000311
B1452573748072N00054609WA0000000314
B1453033748074N00054641WA0000000316
B1453093748063N00054654WA0000000314
B1453153748049N00054665WA0000000311
B1453213748035N00054675WA0000000309
B1453273748029N00054697WA0000000306
B1453333748024N00054726WA0000000302
B1453393748018N00054756WA0000000297
B1453453748012N00054788WA0000000295
B1453513748007N00054817WA0000000294
B1453573748005N00054846WA0000000293
B1454033747997N00054867WA0000000294
B1454093747983N00054859WA0000000288
B1454153747972N00054836WA0000000287
B1454213747959N00054833WA0000000286
B1454273747964N00054858WA0000000280
B1454333747987N00054883WA0000000284
B1454393748003N00054913WA0000000283
B1454453748013N00054939WA0000000281
B1454513748005N00054930WA0000000272
B1454573748000N00054905WA0000000270
B1455033747993N00054884WA0000000268
B1455093747985N00054861WA0000000271
B1455153747976N00054838WA0000000269
B1455213747967N00054825WA0000000271
B1455273747964N00054800WA0000000270
B1455333747956N00054778WA0000000269
B1455393747946N00054756WA0000000265
B1455453747958N00054723WA0000000263
B1455513747982N00054690WA0000000263
B1455573748005N00054660WA0000000261
B1456033748027N00054630WA0000000257
B1456093748044N00054599WA0000000257
B1456153748049N00054567WA0000000258
B1456213748050N00054535WA0000000260
B1456273748042N00054510WA0000000261
B1456333748027N00054511WA0000000261
B1456393748030N00054537WA0000000260
B1456453748046N00054567WA0000000265
B1456513748057N00054597WA0000000267
B1456573748064N00054628WA0000000272
B1457033748075N00054660WA0000000272
B1457093748083N00054690WA0000000278
B1457153748075N00054696WA0000000283
B1457213748072N00054674WA0000000282
B1457273748070N00054648WA0000000285
B1457333748063N00054627WA0000000290
B1457393748064N00054598WA0000000295
B1457453748061N00054572WA0000000302
B1457513748062N00054544WA0000000303
B1457573748065N00054516WA0000000307
B1458033748056N00054517WA0000000308
B1458093748053N00054536WA0000000305
B1458153748057N00054561WA0000000307
B1458213748058N00054588WA0000000309
B1458273748063N00054614WA0000000312
B1458333748061N00054636WA0000000308
B1458393748052N00054655WA0000000314
B1458453748043N00054668WA0000000314
B1458513748035N00054686WA0000000310
B1458573748031N00054711WA0000000305
B1459033748022N00054714WA0000000300
B1459093748028N00054681WA0000000294
B1459153748040N00054649WA0000000291
B1459213748047N00054617WA0000000291
B1459273748047N00054586WA0000000296
B1459333748045N00054558WA0000000305
B1459393748040N00054532WA0000000305
B1459453748028N00054529WA0000000301
B1459513748025N00054552WA0000000295
B1459573748026N00054583WA0000000292
B1500033748021N00054613WA0000000292
B1500093748031N00054645WA0000000289
B1500153748044N00054678WA0000000287
B1500213748040N00054701WA0000000283
B1500273748041N00054674WA0000000279
B1500333748059N00054645WA0000000277
B1500393748068N00054614WA0000000279
B1500453748071N00054583WA0000000284
B1500513748071N00054553WA0000000289
B1500573748069N00054527WA0000000291
B1501033748066N00054502WA0000000296
B1501093748061N00054513WA0000000296
B1501153748070N00054539WA0000000300
B1501213748069N00054562WA0000000299
B1501273748072N00054586WA0000000299
B1501333748082N00054613WA0000000305
B1501393748085N00054640WA0000000311
B1501453748080N00054653WA0000000312
B1501513748072N00054636WA0000000309
B1501573748068N00054614WA0000000310
B1502033748062N00054592WA0000000307
B1502093748066N00054560WA0000000307
B1502153748064N00054529WA0000000304
B1502213748049N00054518WA0000000307
B1502273748037N00054514WA0000000307
B1502333748025N00054520WA0000000307
B1502393748013N00054527WA0000000307
B1502453748012N00054547WA0000000303
B1502513748019N00054573WA0000000301
B1502573748023N00054600WA0000000300
B1503033748020N00054626WA0000000297
B1503093748016N00054653WA0000000293
B1503153748011N00054680WA0000000290
B1503213748007N00054705WA0000000290
B1503273748001N00054726WA0000000290
B1503333748001N00054749WA0000000288
B1503393748005N00054773WA0000000286
B1503453748002N00054792WA0000000280
B1503513747995N00054800WA0000000272
B1503573748005N00054764WA0000000270
B1504033748016N00054725WA0000000271
B1504093748026N00054692WA0000000271
B1504153748043N00054660WA0000000267
B1504213748054N00054623WA0000000265
B1504273748055N00054584WA0000000265
B1504333748049N00054549WA0000000271
B1504393748044N00054521WA0000000273
B1504453748028N00054526WA0000000280
B1504513748020N00054545WA0000000283
B1504573748028N00054574WA0000000287
B1505033748039N00054603WA0000000293
B1505093748057N00054628WA0000000297
B1505153748075N00054656WA0000000299
B1505213748072N00054678WA0000000299
B1505273748064N00054664WA0000000301
B1505333748066N00054636WA0000000298
B1505393748066N00054606WA0000000303
B1505453748062N00054582WA0000000312
B1505513748058N00054551WA0000000314
B1505573748050N00054528WA0000000312
B1506033748034N00054516WA0000000306
B1506093748019N00054509WA0000000304
B1506153748002N00054502WA0000000303
B1506213747988N00054491WA0000000299
B1506273747972N00054482WA0000000296
B1506333747958N00054483WA0000000290
B1506393747943N00054487WA0000000284
B1506453747944N00054513WA0000000276
B1506513747971N00054529WA0000000271
B1506573748008N00054531WA0000000269
B1507033748032N00054556WA0000000270
B1507093748048N00054588WA0000000274
B1507153748065N00054616WA0000000278
B1507213748074N00054651WA0000000281
B1507273748078N00054682WA0000000281
B1507333748072N00054697WA0000000282
B1507393748073N00054676WA0000000289
B1507453748070N00054657WA0000000291
B1507513748065N00054636WA0000000289
B1507573748065N00054612WA0000000292
B1508033748069N00054587WA0000000294
B1508093748065N00054566WA0000000301
B1508153748060N00054545WA0000000304
B1508213748053N00054526WA0000000299
B1508273748043N00054538WA0000000297
B1508333748059N00054566WA0000000298
B1508393748067N00054595WA0000000302
B1508453748082N00054626WA0000000310
B1508513748078N00054644WA0000000315
B1508573748072N00054628WA0000000316
B1509033748069N00054605WA0000000314
B1509093748066N00054579WA0000000314
B1509153748069N00054549WA0000000314
B1509213748074N00054520WA0000000316
B1509273748067N00054507WA0000000318
B1509333748058N00054505WA0000000319
B1509393748051N00054509WA0000000324
B1509453748042N00054509WA0000000325
B1509513748038N00054523WA0000000325
B1509573748032N00054540WA0000000323
B1510033748030N00054560WA0000000324
B1510093748029N00054581WA0000000320
B1510153748030N00054604WA0000000317
B1510213748028N00054629WA0000000317
B1510273748023N00054647WA0000000313
B1510333748022N00054671WA0000000308
B1510393748021N00054697WA0000000304
B1510453748027N00054725WA0000000298
B1510513748027N00054753WA0000000292
B1510573748025N00054780WA0000000286
B1511033748023N00054806WA0000000281
B1511093748017N00054830WA0000000279
B1511153748019N00054855WA0000000275
B1511213748020N00054879WA0000000271
B1511273748019N00054901WA0000000272
B1511333748025N00054926WA0000000271
B1511393748030N00054951WA0000000271
B1511453748025N00054961WA0000000269
B1511513748023N00054943WA0000000272
B1511573748017N00054937WA0000000273
B1512033748011N00054942WA0000000271
B1512093748007N00054922WA0000000271
B1512153748010N00054894WA0000000271
B1512213748010N00054867WA0000000269
B1512273748015N00054838WA0000000267
B1512333748023N00054808WA0000000265
B1512393748036N00054778WA0000000263
B1512453748045N00054748WA0000000261
B1512513748050N00054721WA0000000261
B1512573748059N00054691WA0000000262
B1513033748062N00054661WA0000000269
B1513093748064N00054632WA0000000271
B1513153748068N00054600WA0000000274
B1513213748070N00054565WA0000000277
B1513273748069N00054535WA0000000282
B1513333748060N00054518WA0000000296
B1513393748046N00054512WA0000000301
B1513453748035N00054509WA0000000305
B1513513748026N00054514WA0000000306
B1513573748021N00054533WA0000000306
B1514033748016N00054554WA0000000307
B1514093748016N00054577WA0000000306
B1514153748039N00054598WA0000000308
B1514213748054N00054623WA0000000310
B1514273748059N00054648WA0000000311
B1514333748056N00054664WA0000000311
B1514393748048N00054653WA0000000310
B1514453748057N00054621WA0000000314
B1514513748066N00054587WA0000000318
B1514573748068N00054556WA0000000320
B1515033748068N00054528WA0000000322
B1515093748060N00054513WA0000000331
B1515153748050N00054507WA0000000331
B1515213748044N00054512WA0000000330
B1515273748049N00054528WA0000000332
B1515333748050N00054541WA0000000335
B1515393748045N00054552WA0000000339
B1515453748038N00054558WA0000000341
B1515513748039N00054575WA0000000340
B1515573748055N00054597WA0000000342
B1516033748063N00054619WA0000000346
B1516093748075N00054643WA0000000346
B1516153748069N00054654WA0000000343
B1516213748064N00054630WA0000000339
B1516273748070N00054596WA0000000337
B1516333748074N00054563WA0000000338
B1516393748076N00054531WA0000000340
B1516453748072N00054512WA0000000339
B1516513748067N00054514WA0000000337
B1516573748070N00054528WA0000000339
B1517033748073N00054543WA0000000339
B1517093748076N00054557WA0000000339
B1517153748076N00054569WA0000000339
B1517213748075N00054581WA0000000340
B1517273748076N00054595WA0000000339
B1517333748082N00054614WA0000000338
B1517393748088N00054632WA0000000337
B1517453748086N00054647WA0000000338
B1517513748079N00054653WA0000000333
B1517573748069N00054663WA0000000333
B1518033748062N00054676WA0000000332
B1518093748058N00054685WA0000000332
B1518153748052N00054699WA0000000328
B1518213748049N00054717WA0000000327
B1518273748045N00054731WA0000000327
B1518333748041N00054749WA0000000320
B1518393748038N00054764WA0000000313
B1518453748029N00054780WA0000000305
B1518513748025N00054802WA0000000299
B1518573748022N00054825WA0000000295
B1519033748021N00054846WA0000000293
B1519093748016N00054854WA0000000290
B1519153748018N00054874WA0000000290
B1519213748018N00054888WA0000000290
B1519273748015N00054900WA0000000291
B1519333748014N00054911WA0000000290
B1519393748021N00054931WA0000000288
B1519453748024N00054951WA0000000286
B1519513748026N00054965WA0000000285
B1519573748023N00054979WA0000000281
B1520033748022N00054996WA0000000279
B1520093748029N00055017WA0000000276
B1520153748040N00055039WA0000000272
B1520213748033N00055036WA0000000268
B1520273748026N00055019WA0000000264
B1520333748020N00055000WA0000000263
B1520393748011N00054987WA0000000258
B1520453747999N00054978WA0000000254
B1520513747991N00054963WA0000000253
B1520573747986N00054938WA0000000252
B1521033747978N00054911WA0000000252
B1521093747972N00054880WA0000000251
B1521153747972N00054845WA0000000251
B1521213747972N00054811WA0000000251
B1521273747966N00054789WA0000000249
B1521333747967N00054806WA0000000245
B1521393747999N00054801WA0000000244
B1521453748018N00054771WA0000000243
B1521513748030N00054739WA0000000244
B1521573748030N00054708WA0000000243
B1522033748029N00054676WA0000000243
B1522093748040N00054639WA0000000242
B1522153748048N00054602WA0000000243
B1522213748051N00054568WA0000000246
B1522273748046N00054538WA0000000249
B1522333748040N00054508WA0000000252
B1522393748031N00054515WA0000000254
B1522453748035N00054539WA0000000258
B1522513748043N00054562WA0000000262
B1522573748053N00054583WA0000000267
B1523033748063N00054607WA0000000276
B1523093748079N00054633WA0000000281
B1523153748088N00054660WA0000000285
B1523213748091N00054686WA0000000289
B1523273748087N00054674WA0000000289
B1523333748086N00054653WA0000000290
B1523393748079N00054642WA0000000298
B1523453748067N00054629WA0000000300
B1523513748067N00054604WA0000000300
B1523573748070N00054576WA0000000300
B1524033748070N00054549WA0000000302
B1524093748072N00054522WA0000000310
B1524153748062N00054513WA0000000313
B1524213748055N00054513WA0000000313
B1524273748061N00054532WA0000000315
B1524333748054N00054524WA0000000314
B1524393748048N00054504WA0000000313
B1524453748035N00054500WA0000000314
B1524513748023N00054505WA0000000316
B1524573748009N00054510WA0000000314
B1525033747995N00054513WA0000000313
B1525093747980N00054512WA0000000309
B1525153747965N00054507WA0000000305
B1525213747952N00054500WA0000000303
B1525273747939N00054492WA0000000300
B1525333747926N00054487WA0000000298
B1525393747916N00054483WA0000000298
B1525453747916N00054495WA0000000295
B1525513747911N00054501WA0000000292
B1525573747903N00054502WA0000000291
B1526033747894N00054508WA0000000289
B1526093747887N00054515WA0000000290
B1526153747885N00054523WA0000000287
B1526213747912N00054538WA0000000283
B1526273747951N00054521WA0000000282
B1526333747987N00054516WA0000000287
B1526393748022N00054513WA0000000290
B1526453748051N00054524WA0000000289
B1526513748066N00054551WA0000000292
B1526573748077N00054576WA0000000303
B1527033748081N00054596WA0000000312
B1527093748081N00054617WA0000000320
B1527153748082N00054636WA0000000321
B1527213748082N00054653WA0000000322
B1527273748078N00054633WA0000000324
B1527333748080N00054606WA0000000323
B1527393748079N00054581WA0000000323
B1527453748072N00054564WA0000000326
B1527513748065N00054542WA0000000335
B1527573748057N00054525WA0000000337
B1528033748050N00054514WA0000000337
B1528093748052N00054526WA0000000335
B1528153748064N00054542WA0000000336
B1528213748069N00054557WA0000000339
B1528273748072N00054570WA0000000340
B1528333748076N00054583WA0000000343
B1528393748076N00054591WA0000000344
B1528453748072N00054597WA0000000343
B1528513748069N00054607WA0000000341
B1528573748068N00054622WA0000000341
B1529033748070N00054639WA0000000339
B1529093748069N00054653WA0000000342
B1529153748071N00054667WA0000000341
B1529213748079N00054687WA0000000339
B1529273748076N00054693WA0000000337
B1529333748072N00054705WA0000000336
B1529393748068N00054718WA0000000334
B1529453748064N00054730WA0000000331
B1529513748063N00054738WA0000000328
B1529573748053N00054747WA0000000325
B1530033748047N00054760WA0000000326
B1530093748043N00054775WA0000000323
B1530153748038N00054782WA0000000323
B1530213748034N00054792WA0000000322
B1530273748032N00054807WA0000000317
B1530333748030N00054821WA0000000314
B1530393748026N00054837WA0000000309
B1530453748024N00054854WA0000000306
B1530513748022N00054870WA0000000303
B1530573748022N00054889WA0000000299
B1531033748020N00054906WA0000000296
B1531093748019N00054917WA0000000295
B1531153748021N00054934WA0000000291
B1531213748023N00054954WA0000000283
B1531273748022N00054976WA0000000279
B1531333748026N00055003WA0000000280
B1531393748026N00055016WA0000000280
B1531453748025N00055023WA0000000277
B1531513748038N00055048WA0000000274
B1531573748059N00055073WA0000000272
B1532033748057N00055081WA0000000265
B1532093748050N00055065WA0000000260
B1532153748045N00055048WA0000000256
B1532213748038N00055040WA0000000255
B1532273748030N00055027WA0000000253
B1532333748024N00055011WA0000000253
B1532393748018N00054995WA0000000255
B1532453748018N00054979WA0000000258
B1532513748013N00054963WA0000000259
B1532573748012N00054944WA0000000261
B1533033748009N00054934WA0000000261
B1533093748008N00054913WA0000000262
B1533153748004N00054894WA0000000258
B1533213748001N00054871WA0000000258
B1533273747994N00054852WA0000000256
B1533333747985N00054830WA0000000258
B1533393747975N00054812WA0000000262
B1533453747965N00054798WA0000000261
B1533513747954N00054798WA0000000262
B1533573747946N00054788WA0000000259
B1534033747945N00054762WA0000000251
B1534093747967N00054726WA0000000245
B1534153747996N00054694WA0000000241
B1534213748017N00054654WA0000000238
B1534273748031N00054617WA0000000236
B1534333748038N00054576WA0000000240
B1534393748040N00054538WA0000000249
B1534453748038N00054509WA0000000257
B1534513748031N00054519WA0000000263
B1534573748037N00054543WA0000000272
B1535033748043N00054570WA0000000279
B1535093748055N00054596WA0000000279
B1535153748067N00054623WA0000000284
B1535213748080N00054647WA0000000286
B1535273748087N00054674WA0000000289
B1535333748081N00054681WA0000000293
B1535393748082N00054655WA0000000298
B1535453748082N00054629WA0000000303
B1535513748080N00054602WA0000000307
B1535573748081N00054568WA0000000309
B1536033748077N00054541WA0000000320
B1536093748066N00054529WA0000000333
B1536153748052N00054527WA0000000335
B1536213748040N00054530WA0000000330
B1536273748045N00054554WA0000000330
B1536333748043N00054573WA0000000339
B1536393748042N00054592WA0000000333
B1536453748054N00054619WA0000000334
B1536513748042N00054626WA0000000337
B1536573748029N00054621WA0000000328
B1537033748020N00054611WA0000000327
B1537093748010N00054598WA0000000323
B1537153747998N00054586WA0000000321
B1537213747991N00054573WA0000000323
B1537273747984N00054559WA0000000325
B1537333747978N00054542WA0000000325
B1537393747972N00054531WA0000000324
B1537453747994N00054547WA0000000322
B1537513748027N00054559WA0000000323
B1537573748042N00054580WA0000000324
B1538033748051N00054602WA0000000326
B1538093748046N00054603WA0000000328
B1538153748048N00054573WA0000000330
B1538213748055N00054539WA0000000331
B1538273748051N00054523WA0000000332
B1538333748056N00054535WA0000000333
B1538393748057N00054547WA0000000333
B1538453748053N00054554WA0000000334
B1538513748052N00054560WA0000000334
B1538573748053N00054566WA0000000333
B1539033748050N00054558WA0000000333
B1539093748048N00054542WA0000000332
B1539153748042N00054534WA0000000332
B1539213748037N00054533WA0000000329
B1539273748033N00054540WA0000000327
B1539333748026N00054546WA0000000325
B1539393748018N00054550WA0000000323
B1539453748013N00054552WA0000000324
B1539513748005N00054544WA0000000322
B1539573747997N00054533WA0000000323
B1540033747986N00054524WA0000000318
B1540093747976N00054509WA0000000314
B1540153747966N00054487WA0000000305
B1540213747955N00054465WA0000000303
B1540273747950N00054452WA0000000306
B1540333747942N00054453WA0000000305
B1540393747936N00054447WA0000000302
B1540453747929N00054425WA0000000300
B1540513747920N00054404WA0000000291
B1540573747908N00054383WA0000000286
B1541033747898N00054365WA0000000283
B1541093747895N00054334WA0000000279
B1541153747891N00054299WA0000000282
B1541213747889N00054267WA0000000280
B1541273747893N00054231WA0000000276
B1541333747884N00054203WA0000000271
B1541393747875N00054179WA0000000271
B1541453747866N00054154WA0000000264
B1541513747856N00054125WA0000000261
B1541573747849N00054092WA0000000253
B1542033747851N00054048WA0000000248
B1542093747856N00054006WA0000000244
B1542153747871N00053961WA0000000239
B1542213747889N00053916WA0000000237
B1542273747913N00053876WA0000000236
B1542333747932N00053832WA0000000232
B1542393747951N00053786WA0000000229
B1542453747961N00053743WA0000000227
B1542513747962N00053705WA0000000222
B1542573747961N00053669WA0000000215
B1543033747962N00053635WA0000000210
B1543093747955N00053624WA0000000205
B1543153747949N00053628WA0000000205
B1543213747945N00053638WA0000000205
B1543273747945N00053652WA0000000202
B1543333747948N00053670WA0000000199
B1543393747949N00053683WA0000000200
B1543453747950N00053698WA0000000200
B1543513747951N00053710WA0000000196
B1543573747948N00053715WA0000000194
B1544033747942N00053717WA0000000190
B1544093747933N00053714WA0000000184
B1544153747923N00053719WA0000000173
B1544213747914N00053726WA0000000169
B1544273747907N00053737WA0000000172
B1544333747903N00053751WA0000000168
B1544393747897N00053765WA0000000163
B1544453747889N00053773WA0000000159
B1544513747884N00053782WA0000000155
B1544573747877N00053785WA0000000151
B1545033747869N00053789WA0000000145
B1545093747863N00053797WA0000000137
B1545153747853N00053807WA0000000133
B1545213747847N00053817WA0000000128
B1545273747840N00053824WA0000000122
B1545333747833N00053834WA0000000111
B1545393747825N00053843WA0000000099
B1545453747816N00053849WA0000000091
B1545513747808N00053859WA0000000083
B1545573747800N00053874WA0000000078
B1546033747793N00053889WA0000000068
B1546093747785N00053905WA0000000061
LXCG     VERSION:5.7
GAA23DE952661ADEE94BA7E4051D59FF6381F13493C8475D2ADD5E22B9A80F010DCCA3
G3543769832CE8AFC305BAE717ABFD64E4D947C2C6229E9EE188C90B8939FEF5AA33
GA5FA57037BDA68006BAB673480075A86B7F141A5BEF090C91121B2B19A1D3BAF066
G949D11C0F93FD2291BBA257504CE523033801B59C9122D5E28A35DC741875